sensor_id;sensor_type;location;lat;lon;timestamp;P1;durP1;ratioP1;P2;durP2;ratioP2
46210;SDS011;52144;48.040;-1.594;2023-12-20T00:01:14;4.53;;;1.50;;
46210;SDS011;52144;48.040;-1.594;2023-12-20T00:03:42;3.55;;;1.17;;
46210;SDS011;52144;48.040;-1.594;2023-12-20T00:06:11;5.82;;;2.83;;
46210;SDS011;52144;48.040;-1.594;2023-12-20T00:08:39;3.47;;;1.33;;
46210;SDS011;52144;48.040;-1.594;2023-12-20T00:11:07;11.00;;;1.52;;
46210;SDS011;52144;48.040;-1.594;2023-12-20T00:13:35;4.60;;;1.05;;
46210;SDS011;52144;48.040;-1.594;2023-12-20T00:16:03;4.05;;;1.58;;
46210;SDS011;52144;48.040;-1.594;2023-12-20T00:18:31;7.50;;;1.63;;
46210;SDS011;52144;48.040;-1.594;2023-12-20T00:20:59;8.73;;;1.70;;
46210;SDS011;52144;48.040;-1.594;2023-12-20T00:23:28;5.28;;;1.38;;
46210;SDS011;52144;48.040;-1.594;2023-12-20T00:25:55;2.10;;;1.05;;
46210;SDS011;52144;48.040;-1.594;2023-12-20T00:28:23;3.35;;;1.52;;
46210;SDS011;52144;48.040;-1.594;2023-12-20T00:30:51;2.75;;;1.05;;
46210;SDS011;52144;48.040;-1.594;2023-12-20T00:33:19;5.97;;;1.45;;
46210;SDS011;52144;48.040;-1.594;2023-12-20T00:35:47;6.60;;;1.98;;
46210;SDS011;52144;48.040;-1.594;2023-12-20T00:38:15;2.30;;;1.10;;
46210;SDS011;52144;48.040;-1.594;2023-12-20T00:40:44;4.32;;;1.70;;
46210;SDS011;52144;48.040;-1.594;2023-12-20T00:43:12;2.38;;;1.55;;
46210;SDS011;52144;48.040;-1.594;2023-12-20T00:45:39;1.95;;;1.10;;
46210;SDS011;52144;48.040;-1.594;2023-12-20T00:48:07;3.55;;;1.33;;
46210;SDS011;52144;48.040;-1.594;2023-12-20T00:50:35;10.82;;;1.92;;
46210;SDS011;52144;48.040;-1.594;2023-12-20T00:53:03;2.30;;;1.40;;
46210;SDS011;52144;48.040;-1.594;2023-12-20T00:55:32;4.28;;;1.35;;
46210;SDS011;52144;48.040;-1.594;2023-12-20T00:58:01;4.38;;;1.88;;
46210;SDS011;52144;48.040;-1.594;2023-12-20T01:00:29;3.92;;;2.10;;
46210;SDS011;52144;48.040;-1.594;2023-12-20T01:02:57;4.80;;;1.38;;
46210;SDS011;52144;48.040;-1.594;2023-12-20T01:05:24;4.88;;;1.63;;
46210;SDS011;52144;48.040;-1.594;2023-12-20T01:07:52;2.05;;;1.45;;
46210;SDS011;52144;48.040;-1.594;2023-12-20T01:10:20;5.60;;;1.70;;
46210;SDS011;52144;48.040;-1.594;2023-12-20T01:12:49;6.68;;;2.28;;
46210;SDS011;52144;48.040;-1.594;2023-12-20T01:15:18;1.35;;;1.25;;
46210;SDS011;52144;48.040;-1.594;2023-12-20T01:17:46;1.05;;;0.90;;
46210;SDS011;52144;48.040;-1.594;2023-12-20T01:20:14;1.38;;;1.30;;
46210;SDS011;52144;48.040;-1.594;2023-12-20T01:22:43;3.08;;;1.73;;
46210;SDS011;52144;48.040;-1.594;2023-12-20T01:25:12;3.97;;;2.05;;
46210;SDS011;52144;48.040;-1.594;2023-12-20T01:27:40;1.90;;;0.95;;
46210;SDS011;52144;48.040;-1.594;2023-12-20T01:30:08;8.73;;;1.42;;
46210;SDS011;52144;48.040;-1.594;2023-12-20T01:32:38;2.08;;;1.83;;
46210;SDS011;52144;48.040;-1.594;2023-12-20T01:35:06;4.00;;;1.80;;
46210;SDS011;52144;48.040;-1.594;2023-12-20T01:37:34;4.15;;;1.80;;
46210;SDS011;52144;48.040;-1.594;2023-12-20T01:40:02;2.08;;;1.27;;
46210;SDS011;52144;48.040;-1.594;2023-12-20T01:42:30;4.85;;;2.45;;
46210;SDS011;52144;48.040;-1.594;2023-12-20T01:44:58;4.43;;;1.42;;
46210;SDS011;52144;48.040;-1.594;2023-12-20T01:47:26;2.38;;;1.25;;
46210;SDS011;52144;48.040;-1.594;2023-12-20T01:49:55;2.30;;;1.08;;
46210;SDS011;52144;48.040;-1.594;2023-12-20T01:52:24;7.38;;;1.88;;
46210;SDS011;52144;48.040;-1.594;2023-12-20T01:54:53;3.40;;;2.45;;
46210;SDS011;52144;48.040;-1.594;2023-12-20T01:57:27;2.38;;;1.30;;
46210;SDS011;52144;48.040;-1.594;2023-12-20T01:59:55;2.20;;;1.58;;
46210;SDS011;52144;48.040;-1.594;2023-12-20T02:02:24;2.28;;;0.95;;
46210;SDS011;52144;48.040;-1.594;2023-12-20T02:04:56;2.38;;;2.13;;
46210;SDS011;52144;48.040;-1.594;2023-12-20T02:07:24;7.10;;;1.55;;
46210;SDS011;52144;48.040;-1.594;2023-12-20T02:09:53;5.65;;;1.17;;
46210;SDS011;52144;48.040;-1.594;2023-12-20T02:12:20;5.25;;;1.40;;
46210;SDS011;52144;48.040;-1.594;2023-12-20T02:14:49;3.50;;;1.35;;
46210;SDS011;52144;48.040;-1.594;2023-12-20T02:17:17;3.95;;;1.73;;
46210;SDS011;52144;48.040;-1.594;2023-12-20T02:19:44;4.28;;;1.95;;
46210;SDS011;52144;48.040;-1.594;2023-12-20T02:22:14;5.75;;;2.22;;
46210;SDS011;52144;48.040;-1.594;2023-12-20T02:24:42;5.07;;;2.00;;
46210;SDS011;52144;48.040;-1.594;2023-12-20T02:27:10;1.35;;;1.15;;
46210;SDS011;52144;48.040;-1.594;2023-12-20T02:29:39;6.07;;;1.58;;
46210;SDS011;52144;48.040;-1.594;2023-12-20T02:32:07;2.95;;;2.78;;
46210;SDS011;52144;48.040;-1.594;2023-12-20T02:34:34;2.70;;;2.13;;
46210;SDS011;52144;48.040;-1.594;2023-12-20T02:37:03;5.03;;;1.33;;
46210;SDS011;52144;48.040;-1.594;2023-12-20T02:39:32;1.02;;;1.00;;
46210;SDS011;52144;48.040;-1.594;2023-12-20T02:42:00;5.88;;;1.20;;
46210;SDS011;52144;48.040;-1.594;2023-12-20T02:44:28;10.98;;;2.15;;
46210;SDS011;52144;48.040;-1.594;2023-12-20T02:46:55;2.65;;;1.38;;
46210;SDS011;52144;48.040;-1.594;2023-12-20T02:49:23;13.00;;;1.85;;
46210;SDS011;52144;48.040;-1.594;2023-12-20T02:51:51;4.18;;;0.73;;
46210;SDS011;52144;48.040;-1.594;2023-12-20T02:54:19;5.72;;;0.95;;
46210;SDS011;52144;48.040;-1.594;2023-12-20T02:56:48;11.00;;;1.85;;
46210;SDS011;52144;48.040;-1.594;2023-12-20T02:59:16;6.93;;;1.58;;
46210;SDS011;52144;48.040;-1.594;2023-12-20T03:01:45;4.07;;;1.92;;
46210;SDS011;52144;48.040;-1.594;2023-12-20T03:04:13;1.83;;;1.40;;
46210;SDS011;52144;48.040;-1.594;2023-12-20T03:06:41;3.17;;;1.73;;
46210;SDS011;52144;48.040;-1.594;2023-12-20T03:09:09;1.33;;;0.88;;
46210;SDS011;52144;48.040;-1.594;2023-12-20T03:11:37;8.40;;;1.40;;
46210;SDS011;52144;48.040;-1.594;2023-12-20T03:14:06;2.20;;;1.48;;
46210;SDS011;52144;48.040;-1.594;2023-12-20T03:16:33;2.42;;;1.10;;
46210;SDS011;52144;48.040;-1.594;2023-12-20T03:19:02;1.52;;;1.42;;
46210;SDS011;52144;48.040;-1.594;2023-12-20T03:21:30;0.70;;;0.70;;
46210;SDS011;52144;48.040;-1.594;2023-12-20T03:23:58;2.85;;;1.10;;
46210;SDS011;52144;48.040;-1.594;2023-12-20T03:26:26;3.90;;;1.25;;
46210;SDS011;52144;48.040;-1.594;2023-12-20T03:28:53;8.13;;;1.30;;
46210;SDS011;52144;48.040;-1.594;2023-12-20T03:31:22;3.13;;;1.25;;
46210;SDS011;52144;48.040;-1.594;2023-12-20T03:33:50;7.57;;;1.58;;
46210;SDS011;52144;48.040;-1.594;2023-12-20T03:36:20;1.80;;;1.20;;
46210;SDS011;52144;48.040;-1.594;2023-12-20T03:38:47;3.47;;;1.40;;
46210;SDS011;52144;48.040;-1.594;2023-12-20T03:41:15;4.97;;;1.33;;
46210;SDS011;52144;48.040;-1.594;2023-12-20T03:43:43;6.22;;;1.92;;
46210;SDS011;52144;48.040;-1.594;2023-12-20T03:46:11;1.08;;;1.02;;
46210;SDS011;52144;48.040;-1.594;2023-12-20T03:48:40;4.15;;;2.67;;
46210;SDS011;52144;48.040;-1.594;2023-12-20T03:51:08;2.65;;;1.15;;
46210;SDS011;52144;48.040;-1.594;2023-12-20T03:53:35;0.50;;;0.50;;
46210;SDS011;52144;48.040;-1.594;2023-12-20T03:56:03;5.50;;;1.13;;
46210;SDS011;52144;48.040;-1.594;2023-12-20T03:58:32;6.85;;;1.13;;
46210;SDS011;52144;48.040;-1.594;2023-12-20T04:00:59;5.63;;;1.20;;
46210;SDS011;52144;48.040;-1.594;2023-12-20T04:03:27;0.85;;;0.70;;
46210;SDS011;52144;48.040;-1.594;2023-12-20T04:05:56;3.20;;;0.90;;
46210;SDS011;52144;48.040;-1.594;2023-12-20T04:08:24;1.08;;;0.73;;
46210;SDS011;52144;48.040;-1.594;2023-12-20T04:10:52;0.85;;;0.85;;
46210;SDS011;52144;48.040;-1.594;2023-12-20T04:13:20;2.35;;;0.93;;
46210;SDS011;52144;48.040;-1.594;2023-12-20T04:15:48;1.77;;;1.67;;
46210;SDS011;52144;48.040;-1.594;2023-12-20T04:18:17;4.28;;;1.83;;
46210;SDS011;52144;48.040;-1.594;2023-12-20T04:20:45;10.00;;;1.45;;
46210;SDS011;52144;48.040;-1.594;2023-12-20T04:23:14;4.10;;;0.80;;
46210;SDS011;52144;48.040;-1.594;2023-12-20T04:25:42;1.25;;;0.70;;
46210;SDS011;52144;48.040;-1.594;2023-12-20T04:28:10;15.52;;;1.58;;
46210;SDS011;52144;48.040;-1.594;2023-12-20T04:30:37;5.32;;;1.17;;
46210;SDS011;52144;48.040;-1.594;2023-12-20T04:33:05;1.13;;;0.80;;
46210;SDS011;52144;48.040;-1.594;2023-12-20T04:35:33;1.83;;;0.82;;
46210;SDS011;52144;48.040;-1.594;2023-12-20T04:38:01;0.68;;;0.68;;
46210;SDS011;52144;48.040;-1.594;2023-12-20T04:40:30;5.15;;;0.93;;
46210;SDS011;52144;48.040;-1.594;2023-12-20T04:42:58;2.80;;;0.70;;
46210;SDS011;52144;48.040;-1.594;2023-12-20T04:45:26;1.10;;;0.93;;
46210;SDS011;52144;48.040;-1.594;2023-12-20T04:47:53;1.42;;;1.25;;
46210;SDS011;52144;48.040;-1.594;2023-12-20T04:50:22;2.42;;;0.98;;
46210;SDS011;52144;48.040;-1.594;2023-12-20T04:52:50;2.40;;;1.58;;
46210;SDS011;52144;48.040;-1.594;2023-12-20T04:55:18;1.13;;;1.00;;
46210;SDS011;52144;48.040;-1.594;2023-12-20T04:57:47;0.80;;;0.80;;
46210;SDS011;52144;48.040;-1.594;2023-12-20T05:00:15;3.70;;;1.13;;
46210;SDS011;52144;48.040;-1.594;2023-12-20T05:02:43;2.85;;;1.15;;
46210;SDS011;52144;48.040;-1.594;2023-12-20T05:05:11;2.95;;;1.67;;
46210;SDS011;52144;48.040;-1.594;2023-12-20T05:07:41;1.23;;;0.70;;
46210;SDS011;52144;48.040;-1.594;2023-12-20T05:10:09;0.95;;;0.82;;
46210;SDS011;52144;48.040;-1.594;2023-12-20T05:12:37;1.17;;;1.17;;
46210;SDS011;52144;48.040;-1.594;2023-12-20T05:15:07;0.82;;;0.82;;
46210;SDS011;52144;48.040;-1.594;2023-12-20T05:17:35;4.25;;;0.90;;
46210;SDS011;52144;48.040;-1.594;2023-12-20T05:20:03;6.22;;;1.38;;
46210;SDS011;52144;48.040;-1.594;2023-12-20T05:22:32;1.90;;;1.02;;
46210;SDS011;52144;48.040;-1.594;2023-12-20T05:25:00;3.80;;;1.02;;
46210;SDS011;52144;48.040;-1.594;2023-12-20T05:27:28;4.53;;;0.98;;
46210;SDS011;52144;48.040;-1.594;2023-12-20T05:29:56;3.25;;;0.68;;
46210;SDS011;52144;48.040;-1.594;2023-12-20T05:32:25;2.28;;;1.05;;
46210;SDS011;52144;48.040;-1.594;2023-12-20T05:34:53;1.75;;;0.90;;
46210;SDS011;52144;48.040;-1.594;2023-12-20T05:37:21;2.40;;;1.08;;
46210;SDS011;52144;48.040;-1.594;2023-12-20T05:39:49;2.90;;;1.02;;
46210;SDS011;52144;48.040;-1.594;2023-12-20T05:42:16;7.80;;;0.90;;
46210;SDS011;52144;48.040;-1.594;2023-12-20T05:44:44;1.77;;;0.95;;
46210;SDS011;52144;48.040;-1.594;2023-12-20T05:47:12;9.88;;;1.58;;
46210;SDS011;52144;48.040;-1.594;2023-12-20T05:49:41;0.98;;;0.90;;
46210;SDS011;52144;48.040;-1.594;2023-12-20T05:52:10;5.85;;;1.73;;
46210;SDS011;52144;48.040;-1.594;2023-12-20T05:54:38;0.93;;;0.90;;
46210;SDS011;52144;48.040;-1.594;2023-12-20T05:57:05;0.75;;;0.68;;
46210;SDS011;52144;48.040;-1.594;2023-12-20T05:59:33;4.40;;;0.50;;
46210;SDS011;52144;48.040;-1.594;2023-12-20T06:02:02;4.38;;;1.05;;
46210;SDS011;52144;48.040;-1.594;2023-12-20T06:04:31;1.13;;;0.70;;
46210;SDS011;52144;48.040;-1.594;2023-12-20T06:07:00;1.02;;;0.68;;
46210;SDS011;52144;48.040;-1.594;2023-12-20T06:09:28;11.73;;;1.92;;
46210;SDS011;52144;48.040;-1.594;2023-12-20T06:11:57;7.20;;;0.80;;
46210;SDS011;52144;48.040;-1.594;2023-12-20T06:14:25;8.60;;;2.05;;
46210;SDS011;52144;48.040;-1.594;2023-12-20T06:16:53;8.05;;;2.58;;
46210;SDS011;52144;48.040;-1.594;2023-12-20T06:19:21;9.32;;;3.03;;
46210;SDS011;52144;48.040;-1.594;2023-12-20T06:21:48;4.00;;;2.15;;
46210;SDS011;52144;48.040;-1.594;2023-12-20T06:24:18;8.70;;;2.70;;
46210;SDS011;52144;48.040;-1.594;2023-12-20T06:26:45;2.67;;;1.85;;
46210;SDS011;52144;48.040;-1.594;2023-12-20T06:29:13;1.23;;;0.93;;
46210;SDS011;52144;48.040;-1.594;2023-12-20T06:31:41;7.68;;;2.35;;
46210;SDS011;52144;48.040;-1.594;2023-12-20T06:34:09;1.13;;;1.13;;
46210;SDS011;52144;48.040;-1.594;2023-12-20T06:36:37;2.72;;;1.73;;
46210;SDS011;52144;48.040;-1.594;2023-12-20T06:39:04;1.50;;;1.40;;
46210;SDS011;52144;48.040;-1.594;2023-12-20T06:41:34;4.15;;;0.98;;
46210;SDS011;52144;48.040;-1.594;2023-12-20T06:44:01;5.45;;;1.10;;
46210;SDS011;52144;48.040;-1.594;2023-12-20T06:46:29;1.67;;;1.58;;
46210;SDS011;52144;48.040;-1.594;2023-12-20T06:48:57;3.55;;;1.13;;
46210;SDS011;52144;48.040;-1.594;2023-12-20T06:51:25;0.50;;;0.50;;
46210;SDS011;52144;48.040;-1.594;2023-12-20T06:53:53;3.42;;;0.68;;
46210;SDS011;52144;48.040;-1.594;2023-12-20T06:56:21;2.67;;;1.25;;
46210;SDS011;52144;48.040;-1.594;2023-12-20T06:58:50;1.38;;;1.25;;
46210;SDS011;52144;48.040;-1.594;2023-12-20T07:01:17;2.28;;;1.08;;
46210;SDS011;52144;48.040;-1.594;2023-12-20T07:03:45;5.95;;;1.35;;
46210;SDS011;52144;48.040;-1.594;2023-12-20T07:06:13;1.50;;;1.10;;
46210;SDS011;52144;48.040;-1.594;2023-12-20T07:08:43;5.00;;;0.98;;
46210;SDS011;52144;48.040;-1.594;2023-12-20T07:11:10;0.75;;;0.68;;
46210;SDS011;52144;48.040;-1.594;2023-12-20T07:13:38;0.80;;;0.80;;
46210;SDS011;52144;48.040;-1.594;2023-12-20T07:16:07;3.15;;;1.23;;
46210;SDS011;52144;48.040;-1.594;2023-12-20T07:18:35;8.10;;;1.83;;
46210;SDS011;52144;48.040;-1.594;2023-12-20T07:21:03;0.90;;;0.90;;
46210;SDS011;52144;48.040;-1.594;2023-12-20T07:23:31;0.98;;;0.93;;
46210;SDS011;52144;48.040;-1.594;2023-12-20T07:25:59;4.63;;;1.77;;
46210;SDS011;52144;48.040;-1.594;2023-12-20T07:28:26;9.07;;;1.48;;
46210;SDS011;52144;48.040;-1.594;2023-12-20T07:30:54;5.57;;;1.20;;
46210;SDS011;52144;48.040;-1.594;2023-12-20T07:33:23;6.18;;;1.17;;
46210;SDS011;52144;48.040;-1.594;2023-12-20T07:35:51;4.22;;;1.48;;
46210;SDS011;52144;48.040;-1.594;2023-12-20T07:38:19;1.10;;;0.90;;
46210;SDS011;52144;48.040;-1.594;2023-12-20T07:40:47;5.82;;;2.03;;
46210;SDS011;52144;48.040;-1.594;2023-12-20T07:43:15;6.07;;;2.67;;
46210;SDS011;52144;48.040;-1.594;2023-12-20T07:45:43;2.88;;;1.58;;
46210;SDS011;52144;48.040;-1.594;2023-12-20T07:48:11;3.30;;;2.05;;
46210;SDS011;52144;48.040;-1.594;2023-12-20T07:50:40;8.93;;;2.75;;
46210;SDS011;52144;48.040;-1.594;2023-12-20T07:53:08;7.18;;;3.33;;
46210;SDS011;52144;48.040;-1.594;2023-12-20T07:55:36;4.00;;;2.53;;
46210;SDS011;52144;48.040;-1.594;2023-12-20T07:58:04;3.30;;;1.77;;
46210;SDS011;52144;48.040;-1.594;2023-12-20T08:00:32;4.90;;;1.77;;
46210;SDS011;52144;48.040;-1.594;2023-12-20T08:03:00;3.95;;;1.80;;
46210;SDS011;52144;48.040;-1.594;2023-12-20T08:05:30;1.55;;;1.45;;
46210;SDS011;52144;48.040;-1.594;2023-12-20T08:07:59;2.97;;;2.28;;
46210;SDS011;52144;48.040;-1.594;2023-12-20T08:10:26;4.25;;;1.08;;
46210;SDS011;52144;48.040;-1.594;2023-12-20T08:12:56;2.20;;;1.95;;
46210;SDS011;52144;48.040;-1.594;2023-12-20T08:15:22;1.92;;;1.15;;
46210;SDS011;52144;48.040;-1.594;2023-12-20T08:17:50;1.75;;;1.10;;
46210;SDS011;52144;48.040;-1.594;2023-12-20T08:20:18;6.32;;;2.58;;
46210;SDS011;52144;48.040;-1.594;2023-12-20T08:22:59;6.78;;;3.30;;
46210;SDS011;52144;48.040;-1.594;2023-12-20T08:25:27;14.20;;;3.28;;
46210;SDS011;52144;48.040;-1.594;2023-12-20T08:27:54;2.13;;;1.70;;
46210;SDS011;52144;48.040;-1.594;2023-12-20T08:30:22;9.50;;;1.42;;
46210;SDS011;52144;48.040;-1.594;2023-12-20T08:32:51;12.30;;;2.58;;
46210;SDS011;52144;48.040;-1.594;2023-12-20T08:35:19;4.85;;;2.75;;
46210;SDS011;52144;48.040;-1.594;2023-12-20T08:37:47;7.80;;;2.67;;
46210;SDS011;52144;48.040;-1.594;2023-12-20T08:40:16;5.97;;;3.42;;
46210;SDS011;52144;48.040;-1.594;2023-12-20T08:42:44;9.02;;;4.43;;
46210;SDS011;52144;48.040;-1.594;2023-12-20T08:45:11;7.00;;;3.58;;
46210;SDS011;52144;48.040;-1.594;2023-12-20T08:47:39;12.60;;;5.47;;
46210;SDS011;52144;48.040;-1.594;2023-12-20T08:50:07;15.55;;;6.22;;
46210;SDS011;52144;48.040;-1.594;2023-12-20T08:52:35;16.85;;;6.43;;
46210;SDS011;52144;48.040;-1.594;2023-12-20T08:55:04;2.15;;;1.67;;
46210;SDS011;52144;48.040;-1.594;2023-12-20T08:57:33;2.30;;;1.85;;
46210;SDS011;52144;48.040;-1.594;2023-12-20T09:00:01;2.38;;;1.83;;
46210;SDS011;52144;48.040;-1.594;2023-12-20T09:02:33;8.32;;;2.83;;
46210;SDS011;52144;48.040;-1.594;2023-12-20T09:05:02;8.00;;;3.75;;
46210;SDS011;52144;48.040;-1.594;2023-12-20T09:07:30;2.33;;;1.52;;
46210;SDS011;52144;48.040;-1.594;2023-12-20T09:09:58;4.25;;;1.65;;
46210;SDS011;52144;48.040;-1.594;2023-12-20T09:12:26;5.00;;;1.55;;
46210;SDS011;52144;48.040;-1.594;2023-12-20T09:14:55;3.38;;;1.65;;
46210;SDS011;52144;48.040;-1.594;2023-12-20T09:17:23;4.03;;;1.20;;
46210;SDS011;52144;48.040;-1.594;2023-12-20T09:19:52;2.92;;;1.67;;
46210;SDS011;52144;48.040;-1.594;2023-12-20T09:22:20;7.35;;;4.72;;
46210;SDS011;52144;48.040;-1.594;2023-12-20T09:24:48;12.95;;;7.40;;
46210;SDS011;52144;48.040;-1.594;2023-12-20T09:27:16;13.40;;;6.95;;
46210;SDS011;52144;48.040;-1.594;2023-12-20T09:29:44;14.60;;;4.03;;
46210;SDS011;52144;48.040;-1.594;2023-12-20T09:32:13;4.38;;;3.25;;
46210;SDS011;52144;48.040;-1.594;2023-12-20T09:34:41;14.88;;;5.07;;
46210;SDS011;52144;48.040;-1.594;2023-12-20T09:37:09;11.82;;;5.93;;
46210;SDS011;52144;48.040;-1.594;2023-12-20T09:39:37;15.50;;;6.75;;
46210;SDS011;52144;48.040;-1.594;2023-12-20T09:42:05;14.73;;;6.28;;
46210;SDS011;52144;48.040;-1.594;2023-12-20T09:44:34;14.30;;;5.30;;
46210;SDS011;52144;48.040;-1.594;2023-12-20T09:47:03;10.55;;;4.80;;
46210;SDS011;52144;48.040;-1.594;2023-12-20T09:49:33;12.32;;;5.65;;
46210;SDS011;52144;48.040;-1.594;2023-12-20T09:52:01;10.55;;;7.28;;
46210;SDS011;52144;48.040;-1.594;2023-12-20T09:54:33;6.43;;;4.25;;
46210;SDS011;52144;48.040;-1.594;2023-12-20T09:57:01;5.38;;;1.63;;
46210;SDS011;52144;48.040;-1.594;2023-12-20T09:59:29;6.40;;;2.15;;
46210;SDS011;52144;48.040;-1.594;2023-12-20T10:01:57;5.93;;;1.95;;
46210;SDS011;52144;48.040;-1.594;2023-12-20T10:04:25;2.97;;;1.60;;
46210;SDS011;52144;48.040;-1.594;2023-12-20T10:07:01;2.08;;;1.67;;
46210;SDS011;52144;48.040;-1.594;2023-12-20T10:09:32;2.42;;;1.33;;
46210;SDS011;52144;48.040;-1.594;2023-12-20T10:12:01;4.20;;;1.98;;
46210;SDS011;52144;48.040;-1.594;2023-12-20T10:14:32;4.28;;;1.98;;
46210;SDS011;52144;48.040;-1.594;2023-12-20T10:17:01;3.22;;;2.17;;
46210;SDS011;52144;48.040;-1.594;2023-12-20T10:19:30;7.53;;;1.80;;
46210;SDS011;52144;48.040;-1.594;2023-12-20T10:22:00;2.38;;;1.73;;
46210;SDS011;52144;48.040;-1.594;2023-12-20T10:24:28;6.40;;;2.97;;
46210;SDS011;52144;48.040;-1.594;2023-12-20T10:27:03;1.42;;;1.33;;
46210;SDS011;52144;48.040;-1.594;2023-12-20T10:29:32;6.28;;;1.98;;
46210;SDS011;52144;48.040;-1.594;2023-12-20T10:32:22;14.63;;;2.85;;
46210;SDS011;52144;48.040;-1.594;2023-12-20T10:34:51;4.15;;;2.15;;
46210;SDS011;52144;48.040;-1.594;2023-12-20T10:37:20;10.95;;;2.35;;
46210;SDS011;52144;48.040;-1.594;2023-12-20T10:39:49;12.55;;;2.72;;
46210;SDS011;52144;48.040;-1.594;2023-12-20T10:42:19;10.70;;;2.83;;
46210;SDS011;52144;48.040;-1.594;2023-12-20T10:44:49;3.72;;;1.40;;
46210;SDS011;52144;48.040;-1.594;2023-12-20T10:47:17;4.82;;;2.30;;
46210;SDS011;52144;48.040;-1.594;2023-12-20T10:49:46;9.05;;;2.63;;
46210;SDS011;52144;48.040;-1.594;2023-12-20T10:52:15;6.47;;;3.00;;
46210;SDS011;52144;48.040;-1.594;2023-12-20T10:54:45;6.95;;;2.42;;
46210;SDS011;52144;48.040;-1.594;2023-12-20T10:57:13;6.85;;;2.05;;
46210;SDS011;52144;48.040;-1.594;2023-12-20T10:59:44;1.88;;;1.63;;
46210;SDS011;52144;48.040;-1.594;2023-12-20T11:02:16;5.55;;;2.38;;
46210;SDS011;52144;48.040;-1.594;2023-12-20T11:04:46;3.25;;;2.45;;
46210;SDS011;52144;48.040;-1.594;2023-12-20T11:07:20;3.10;;;1.95;;
46210;SDS011;52144;48.040;-1.594;2023-12-20T11:09:56;1.75;;;0.93;;
46210;SDS011;52144;48.040;-1.594;2023-12-20T11:12:31;3.22;;;1.88;;
46210;SDS011;52144;48.040;-1.594;2023-12-20T11:15:06;1.70;;;1.60;;
46210;SDS011;52144;48.040;-1.594;2023-12-20T11:17:35;5.22;;;1.60;;
46210;SDS011;52144;48.040;-1.594;2023-12-20T11:20:04;10.95;;;3.10;;
46210;SDS011;52144;48.040;-1.594;2023-12-20T11:22:34;2.90;;;1.10;;
46210;SDS011;52144;48.040;-1.594;2023-12-20T11:25:08;4.40;;;1.30;;
46210;SDS011;52144;48.040;-1.594;2023-12-20T11:27:40;5.60;;;1.70;;
46210;SDS011;52144;48.040;-1.594;2023-12-20T11:30:10;8.02;;;1.60;;
46210;SDS011;52144;48.040;-1.594;2023-12-20T11:32:38;7.72;;;3.10;;
46210;SDS011;52144;48.040;-1.594;2023-12-20T11:35:17;6.38;;;2.00;;
46210;SDS011;52144;48.040;-1.594;2023-12-20T11:37:46;6.10;;;1.80;;
46210;SDS011;52144;48.040;-1.594;2023-12-20T11:40:17;2.53;;;1.50;;
46210;SDS011;52144;48.040;-1.594;2023-12-20T11:42:48;11.43;;;2.30;;
46210;SDS011;52144;48.040;-1.594;2023-12-20T11:45:17;11.38;;;2.70;;
46210;SDS011;52144;48.040;-1.594;2023-12-20T11:47:49;1.75;;;1.25;;
46210;SDS011;52144;48.040;-1.594;2023-12-20T11:50:18;4.85;;;1.27;;
46210;SDS011;52144;48.040;-1.594;2023-12-20T11:52:46;9.52;;;2.10;;
46210;SDS011;52144;48.040;-1.594;2023-12-20T11:55:14;9.75;;;1.52;;
46210;SDS011;52144;48.040;-1.594;2023-12-20T11:57:44;5.00;;;2.28;;
46210;SDS011;52144;48.040;-1.594;2023-12-20T12:00:13;2.25;;;1.30;;
46210;SDS011;52144;48.040;-1.594;2023-12-20T12:02:42;9.90;;;2.00;;
46210;SDS011;52144;48.040;-1.594;2023-12-20T12:05:12;4.13;;;1.25;;
46210;SDS011;52144;48.040;-1.594;2023-12-20T12:07:40;9.90;;;1.52;;
46210;SDS011;52144;48.040;-1.594;2023-12-20T12:10:08;7.55;;;1.67;;
46210;SDS011;52144;48.040;-1.594;2023-12-20T12:12:36;4.53;;;1.77;;
46210;SDS011;52144;48.040;-1.594;2023-12-20T12:15:06;5.32;;;1.80;;
46210;SDS011;52144;48.040;-1.594;2023-12-20T12:17:35;3.42;;;2.38;;
46210;SDS011;52144;48.040;-1.594;2023-12-20T12:20:04;2.78;;;1.60;;
46210;SDS011;52144;48.040;-1.594;2023-12-20T12:22:33;12.65;;;2.38;;
46210;SDS011;52144;48.040;-1.594;2023-12-20T12:25:09;6.65;;;3.03;;
46210;SDS011;52144;48.040;-1.594;2023-12-20T12:27:39;10.23;;;2.63;;
46210;SDS011;52144;48.040;-1.594;2023-12-20T12:30:09;5.55;;;1.42;;
46210;SDS011;52144;48.040;-1.594;2023-12-20T12:32:39;5.25;;;2.08;;
46210;SDS011;52144;48.040;-1.594;2023-12-20T12:35:08;3.20;;;2.72;;
46210;SDS011;52144;48.040;-1.594;2023-12-20T12:37:37;8.18;;;1.77;;
46210;SDS011;52144;48.040;-1.594;2023-12-20T12:40:07;7.32;;;1.75;;
46210;SDS011;52144;48.040;-1.594;2023-12-20T12:42:37;4.43;;;1.20;;
46210;SDS011;52144;48.040;-1.594;2023-12-20T12:45:06;4.82;;;0.77;;
46210;SDS011;52144;48.040;-1.594;2023-12-20T12:47:35;3.22;;;1.08;;
46210;SDS011;52144;48.040;-1.594;2023-12-20T12:50:03;4.18;;;2.15;;
46210;SDS011;52144;48.040;-1.594;2023-12-20T12:52:32;8.25;;;1.20;;
46210;SDS011;52144;48.040;-1.594;2023-12-20T12:55:01;3.33;;;2.03;;
46210;SDS011;52144;48.040;-1.594;2023-12-20T12:57:31;5.28;;;1.75;;
46210;SDS011;52144;48.040;-1.594;2023-12-20T13:00:00;5.45;;;2.33;;
46210;SDS011;52144;48.040;-1.594;2023-12-20T13:02:29;5.90;;;1.95;;
46210;SDS011;52144;48.040;-1.594;2023-12-20T13:04:58;3.83;;;1.92;;
46210;SDS011;52144;48.040;-1.594;2023-12-20T13:07:27;7.28;;;2.63;;
46210;SDS011;52144;48.040;-1.594;2023-12-20T13:09:55;6.72;;;2.33;;
46210;SDS011;52144;48.040;-1.594;2023-12-20T13:12:23;9.43;;;3.85;;
46210;SDS011;52144;48.040;-1.594;2023-12-20T13:14:50;9.13;;;3.03;;
46210;SDS011;52144;48.040;-1.594;2023-12-20T13:17:19;5.65;;;1.70;;
46210;SDS011;52144;48.040;-1.594;2023-12-20T13:19:47;12.50;;;2.30;;
46210;SDS011;52144;48.040;-1.594;2023-12-20T13:22:17;6.70;;;2.13;;
46210;SDS011;52144;48.040;-1.594;2023-12-20T13:24:45;4.55;;;2.28;;
46210;SDS011;52144;48.040;-1.594;2023-12-20T13:27:13;6.05;;;2.13;;
46210;SDS011;52144;48.040;-1.594;2023-12-20T13:29:41;3.35;;;1.77;;
46210;SDS011;52144;48.040;-1.594;2023-12-20T13:32:09;4.57;;;1.63;;
46210;SDS011;52144;48.040;-1.594;2023-12-20T13:34:36;4.22;;;1.48;;
46210;SDS011;52144;48.040;-1.594;2023-12-20T13:37:04;3.70;;;2.28;;
46210;SDS011;52144;48.040;-1.594;2023-12-20T13:39:34;3.78;;;1.83;;
46210;SDS011;52144;48.040;-1.594;2023-12-20T13:42:01;2.00;;;1.08;;
46210;SDS011;52144;48.040;-1.594;2023-12-20T13:44:29;5.10;;;1.52;;
46210;SDS011;52144;48.040;-1.594;2023-12-20T13:46:57;6.68;;;1.38;;
46210;SDS011;52144;48.040;-1.594;2023-12-20T13:49:25;2.58;;;1.95;;
46210;SDS011;52144;48.040;-1.594;2023-12-20T13:51:53;3.92;;;0.95;;
46210;SDS011;52144;48.040;-1.594;2023-12-20T13:54:22;3.72;;;1.25;;
46210;SDS011;52144;48.040;-1.594;2023-12-20T13:56:51;5.78;;;1.55;;
46210;SDS011;52144;48.040;-1.594;2023-12-20T13:59:37;7.03;;;1.35;;
46210;SDS011;52144;48.040;-1.594;2023-12-20T14:02:05;1.60;;;1.17;;
46210;SDS011;52144;48.040;-1.594;2023-12-20T14:04:33;1.85;;;1.50;;
46210;SDS011;52144;48.040;-1.594;2023-12-20T14:07:08;2.92;;;1.17;;
46210;SDS011;52144;48.040;-1.594;2023-12-20T14:09:38;1.63;;;1.20;;
46210;SDS011;52144;48.040;-1.594;2023-12-20T14:12:13;4.88;;;1.30;;
46210;SDS011;52144;48.040;-1.594;2023-12-20T14:14:41;6.93;;;1.00;;
46210;SDS011;52144;48.040;-1.594;2023-12-20T14:17:11;6.15;;;1.55;;
46210;SDS011;52144;48.040;-1.594;2023-12-20T14:19:39;2.92;;;1.00;;
46210;SDS011;52144;48.040;-1.594;2023-12-20T14:22:07;1.60;;;1.48;;
46210;SDS011;52144;48.040;-1.594;2023-12-20T14:24:34;3.60;;;1.25;;
46210;SDS011;52144;48.040;-1.594;2023-12-20T14:27:02;6.65;;;1.33;;
46210;SDS011;52144;48.040;-1.594;2023-12-20T14:29:31;8.68;;;1.40;;
46210;SDS011;52144;48.040;-1.594;2023-12-20T14:31:59;11.90;;;1.95;;
46210;SDS011;52144;48.040;-1.594;2023-12-20T14:34:29;3.40;;;1.70;;
46210;SDS011;52144;48.040;-1.594;2023-12-20T14:36:56;15.80;;;2.25;;
46210;SDS011;52144;48.040;-1.594;2023-12-20T14:39:24;6.78;;;2.95;;
46210;SDS011;52144;48.040;-1.594;2023-12-20T14:41:52;5.97;;;1.80;;